sensor_id;sensor_type;location;lat;lon;timestamp;pressure;altitude;pressure_sealevel;temperature;humidity
46944;BME280;32678;43.852;25.952;2023-02-28T00:01:08;102113.34;;;6.43;85.31
46944;BME280;32678;43.852;25.952;2023-02-28T00:06:08;102119.28;;;6.20;86.49
46944;BME280;32678;43.852;25.952;2023-02-28T00:11:06;102125.38;;;6.26;86.85
46944;BME280;32678;43.852;25.952;2023-02-28T00:16:04;102131.34;;;6.10;87.71
46944;BME280;32678;43.852;25.952;2023-02-28T00:21:01;102142.81;;;6.38;86.50
46944;BME280;32678;43.852;25.952;2023-02-28T00:25:58;102135.78;;;6.26;87.53
46944;BME280;32678;43.852;25.952;2023-02-28T00:30:55;102124.56;;;6.35;87.38
46944;BME280;32678;43.852;25.952;2023-02-28T00:36:01;102150.75;;;6.55;86.34
46944;BME280;32678;43.852;25.952;2023-02-28T00:40:58;102154.03;;;6.25;87.41
46944;BME280;32678;43.852;25.952;2023-02-28T00:46:00;102160.16;;;6.30;87.35
46944;BME280;32678;43.852;25.952;2023-02-28T00:50:57;102161.03;;;6.33;85.80
46944;BME280;32678;43.852;25.952;2023-02-28T00:55:55;102159.22;;;6.20;87.02
46944;BME280;32678;43.852;25.952;2023-02-28T01:00:52;102160.88;;;6.14;87.00
46944;BME280;32678;43.852;25.952;2023-02-28T01:05:50;102156.78;;;6.47;85.63
46944;BME280;32678;43.852;25.952;2023-02-28T01:10:46;102168.00;;;6.39;85.59
46944;BME280;32678;43.852;25.952;2023-02-28T01:15:52;102159.13;;;6.13;85.35
46944;BME280;32678;43.852;25.952;2023-02-28T01:20:52;102173.00;;;6.12;85.94
46944;BME280;32678;43.852;25.952;2023-02-28T01:25:49;102188.63;;;6.10;86.13
46944;BME280;32678;43.852;25.952;2023-02-28T01:30:47;102188.75;;;6.24;86.33
46944;BME280;32678;43.852;25.952;2023-02-28T01:35:45;102195.88;;;6.52;84.66
46944;BME280;32678;43.852;25.952;2023-02-28T01:40:41;102188.84;;;6.40;85.05
46944;BME280;32678;43.852;25.952;2023-02-28T01:45:39;102224.34;;;6.26;85.67
46944;BME280;32678;43.852;25.952;2023-02-28T01:50:37;102238.19;;;6.19;85.96
46944;BME280;32678;43.852;25.952;2023-02-28T01:55:36;102247.53;;;5.97;86.81
46944;BME280;32678;43.852;25.952;2023-02-28T02:00:36;102233.50;;;5.85;87.05
46944;BME280;32678;43.852;25.952;2023-02-28T02:05:35;102229.19;;;5.87;87.08
46944;BME280;32678;43.852;25.952;2023-02-28T02:10:33;102210.75;;;5.67;87.51
46944;BME280;32678;43.852;25.952;2023-02-28T02:15:34;102173.53;;;5.77;86.75
46944;BME280;32678;43.852;25.952;2023-02-28T02:25:50;102178.81;;;5.83;86.89
46944;BME280;32678;43.852;25.952;2023-02-28T02:31:10;102201.31;;;5.75;87.29
46944;BME280;32678;43.852;25.952;2023-02-28T02:36:15;102184.84;;;5.79;87.17
46944;BME280;32678;43.852;25.952;2023-02-28T02:41:16;102200.72;;;6.03;86.54
46944;BME280;32678;43.852;25.952;2023-02-28T02:46:15;102208.28;;;5.79;85.99
46944;BME280;32678;43.852;25.952;2023-02-28T02:51:17;102211.56;;;5.61;86.40
46944;BME280;32678;43.852;25.952;2023-02-28T02:56:17;102220.16;;;5.54;87.30
46944;BME280;32678;43.852;25.952;2023-02-28T03:01:18;102223.66;;;5.56;87.64
46944;BME280;32678;43.852;25.952;2023-02-28T03:06:25;102254.34;;;5.86;85.91
46944;BME280;32678;43.852;25.952;2023-02-28T03:11:22;102247.75;;;5.40;87.90
46944;BME280;32678;43.852;25.952;2023-02-28T03:16:31;102242.16;;;5.84;87.14
46944;BME280;32678;43.852;25.952;2023-02-28T03:21:31;102245.34;;;5.57;87.32
46944;BME280;32678;43.852;25.952;2023-02-28T03:26:30;102262.84;;;5.70;87.04
46944;BME280;32678;43.852;25.952;2023-02-28T03:31:30;102262.06;;;5.79;85.96
46944;BME280;32678;43.852;25.952;2023-02-28T03:36:28;102265.63;;;5.87;85.87
46944;BME280;32678;43.852;25.952;2023-02-28T03:41:27;102266.16;;;5.58;86.83
46944;BME280;32678;43.852;25.952;2023-02-28T03:46:28;102268.31;;;5.93;86.48
46944;BME280;32678;43.852;25.952;2023-02-28T03:51:27;102266.66;;;5.99;85.78
46944;BME280;32678;43.852;25.952;2023-02-28T03:56:27;102255.06;;;5.72;87.07
46944;BME280;32678;43.852;25.952;2023-02-28T04:01:28;102254.25;;;5.82;86.65
46944;BME280;32678;43.852;25.952;2023-02-28T04:06:27;102262.00;;;5.74;86.78
46944;BME280;32678;43.852;25.952;2023-02-28T04:11:29;102262.56;;;5.46;88.02
46944;BME280;32678;43.852;25.952;2023-02-28T04:16:31;102245.00;;;5.30;88.57
46944;BME280;32678;43.852;25.952;2023-02-28T04:21:32;102258.34;;;5.58;88.50
46944;BME280;32678;43.852;25.952;2023-02-28T04:26:30;102256.53;;;5.50;88.75
46944;BME280;32678;43.852;25.952;2023-02-28T04:31:27;102242.16;;;5.10;89.99
46944;BME280;32678;43.852;25.952;2023-02-28T04:36:24;102246.88;;;5.43;89.75
46944;BME280;32678;43.852;25.952;2023-02-28T04:41:24;102245.28;;;5.54;88.43
46944;BME280;32678;43.852;25.952;2023-02-28T04:46:22;102242.38;;;5.27;89.32
46944;BME280;32678;43.852;25.952;2023-02-28T04:51:19;102253.59;;;5.24;89.09
46944;BME280;32678;43.852;25.952;2023-02-28T04:56:16;102249.59;;;5.50;88.15
46944;BME280;32678;43.852;25.952;2023-02-28T05:01:19;102255.06;;;5.02;89.38
46944;BME280;32678;43.852;25.952;2023-02-28T05:06:17;102269.97;;;5.15;89.17
46944;BME280;32678;43.852;25.952;2023-02-28T05:11:17;102287.22;;;5.10;89.33
46944;BME280;32678;43.852;25.952;2023-02-28T05:16:15;102295.28;;;5.30;88.89
46944;BME280;32678;43.852;25.952;2023-02-28T05:21:26;102286.72;;;5.37;88.12
46944;BME280;32678;43.852;25.952;2023-02-28T05:26:26;102280.31;;;5.11;88.93
46944;BME280;32678;43.852;25.952;2023-02-28T05:31:23;102273.50;;;5.20;90.04
46944;BME280;32678;43.852;25.952;2023-02-28T05:36:20;102285.91;;;5.41;88.89
46944;BME280;32678;43.852;25.952;2023-02-28T05:41:18;102302.38;;;5.40;88.88
46944;BME280;32678;43.852;25.952;2023-02-28T05:46:16;102311.00;;;5.39;88.17
46944;BME280;32678;43.852;25.952;2023-02-28T05:51:13;102322.47;;;5.53;88.22
46944;BME280;32678;43.852;25.952;2023-02-28T05:56:09;102335.25;;;5.38;88.56
46944;BME280;32678;43.852;25.952;2023-02-28T06:01:20;102349.47;;;5.61;87.43
46944;BME280;32678;43.852;25.952;2023-02-28T06:06:19;102342.50;;;5.59;85.97
46944;BME280;32678;43.852;25.952;2023-02-28T06:11:16;102327.88;;;5.05;87.46
46944;BME280;32678;43.852;25.952;2023-02-28T06:16:12;102359.09;;;5.08;87.85
46944;BME280;32678;43.852;25.952;2023-02-28T06:21:13;102337.03;;;5.39;87.20
46944;BME280;32678;43.852;25.952;2023-02-28T06:26:17;102342.09;;;5.30;87.35
46944;BME280;32678;43.852;25.952;2023-02-28T06:31:15;102352.34;;;5.18;88.90
46944;BME280;32678;43.852;25.952;2023-02-28T06:36:13;102341.66;;;4.98;89.14
46944;BME280;32678;43.852;25.952;2023-02-28T06:41:10;102351.81;;;4.85;89.30
46944;BME280;32678;43.852;25.952;2023-02-28T06:46:11;102338.38;;;5.11;88.41
46944;BME280;32678;43.852;25.952;2023-02-28T06:51:09;102334.06;;;5.13;88.89
46944;BME280;32678;43.852;25.952;2023-02-28T06:56:07;102339.41;;;5.22;88.01
46944;BME280;32678;43.852;25.952;2023-02-28T07:01:22;102333.47;;;5.31;88.36
46944;BME280;32678;43.852;25.952;2023-02-28T07:06:48;102332.47;;;5.24;88.20
46944;BME280;32678;43.852;25.952;2023-02-28T07:11:45;102324.59;;;5.17;89.06
46944;BME280;32678;43.852;25.952;2023-02-28T07:16:48;102334.09;;;5.15;89.46
46944;BME280;32678;43.852;25.952;2023-02-28T07:21:56;102338.59;;;5.28;88.29
46944;BME280;32678;43.852;25.952;2023-02-28T07:27:24;102349.56;;;5.06;89.07
46944;BME280;32678;43.852;25.952;2023-02-28T07:32:45;102351.97;;;4.95;90.09
46944;BME280;32678;43.852;25.952;2023-02-28T07:38:05;102365.25;;;5.12;88.89
46944;BME280;32678;43.852;25.952;2023-02-28T07:43:28;102367.84;;;5.13;89.29
46944;BME280;32678;43.852;25.952;2023-02-28T07:48:29;102347.69;;;4.99;89.74
46944;BME280;32678;43.852;25.952;2023-02-28T07:53:40;102356.66;;;5.17;89.69
46944;BME280;32678;43.852;25.952;2023-02-28T07:59:03;102361.91;;;5.20;88.90
46944;BME280;32678;43.852;25.952;2023-02-28T08:04:32;102356.88;;;5.34;88.78
46944;BME280;32678;43.852;25.952;2023-02-28T09:09:27;102360.94;;;5.79;87.19
46944;BME280;32678;43.852;25.952;2023-02-28T09:21:27;102363.13;;;6.16;85.40
46944;BME280;32678;43.852;25.952;2023-02-28T09:26:30;102368.28;;;6.08;85.53
46944;BME280;32678;43.852;25.952;2023-02-28T09:32:15;102365.66;;;6.05;85.23
46944;BME280;32678;43.852;25.952;2023-02-28T09:38:09;102366.38;;;5.94;85.86
46944;BME280;32678;43.852;25.952;2023-02-28T09:43:53;102357.44;;;5.75;86.76
46944;BME280;32678;43.852;25.952;2023-02-28T09:48:55;102363.84;;;6.01;86.11
46944;BME280;32678;43.852;25.952;2023-02-28T09:59:46;102350.50;;;5.77;87.42
46944;BME280;32678;43.852;25.952;2023-02-28T10:04:50;102349.19;;;6.09;86.26
46944;BME280;32678;43.852;25.952;2023-02-28T10:09:51;102353.69;;;6.26;86.09
46944;BME280;32678;43.852;25.952;2023-02-28T10:14:51;102355.69;;;6.52;84.70
46944;BME280;32678;43.852;25.952;2023-02-28T10:19:54;102358.72;;;6.07;86.57
46944;BME280;32678;43.852;25.952;2023-02-28T10:24:53;102355.53;;;6.34;85.40
46944;BME280;32678;43.852;25.952;2023-02-28T10:29:53;102346.50;;;6.02;86.76
46944;BME280;32678;43.852;25.952;2023-02-28T10:34:51;102346.91;;;5.64;88.84
46944;BME280;32678;43.852;25.952;2023-02-28T10:39:49;102346.16;;;5.75;89.32
46944;BME280;32678;43.852;25.952;2023-02-28T10:44:47;102330.06;;;6.04;88.26
46944;BME280;32678;43.852;25.952;2023-02-28T10:49:47;102334.91;;;5.77;88.62
46944;BME280;32678;43.852;25.952;2023-02-28T10:54:45;102332.59;;;5.98;88.63
46944;BME280;32678;43.852;25.952;2023-02-28T10:59:42;102323.97;;;6.04;88.66
46944;BME280;32678;43.852;25.952;2023-02-28T11:04:39;102321.41;;;6.08;87.62
46944;BME280;32678;43.852;25.952;2023-02-28T11:09:38;102317.91;;;6.06;88.79
46944;BME280;32678;43.852;25.952;2023-02-28T11:14:39;102317.13;;;6.14;88.64
46944;BME280;32678;43.852;25.952;2023-02-28T11:19:44;102318.06;;;6.20;88.70
46944;BME280;32678;43.852;25.952;2023-02-28T11:24:43;102311.97;;;6.21;89.18
46944;BME280;32678;43.852;25.952;2023-02-28T11:29:46;102289.25;;;6.03;89.15
46944;BME280;32678;43.852;25.952;2023-02-28T11:34:44;102278.75;;;5.94;89.86
46944;BME280;32678;43.852;25.952;2023-02-28T11:39:40;102278.91;;;6.09;89.06
46944;BME280;32678;43.852;25.952;2023-02-28T11:44:45;102276.34;;;6.17;88.73
46944;BME280;32678;43.852;25.952;2023-02-28T11:50:02;102259.06;;;6.27;88.72
46944;BME280;32678;43.852;25.952;2023-02-28T11:55:05;102261.44;;;6.02;90.00
46944;BME280;32678;43.852;25.952;2023-02-28T12:00:05;102260.72;;;6.17;90.57
46944;BME280;32678;43.852;25.952;2023-02-28T12:05:17;102269.19;;;5.96;90.44
46944;BME280;32678;43.852;25.952;2023-02-28T12:10:21;102275.34;;;6.03;89.98
46944;BME280;32678;43.852;25.952;2023-02-28T12:20:33;102282.38;;;6.12;89.92
46944;BME280;32678;43.852;25.952;2023-02-28T12:25:37;102287.91;;;6.46;88.28
46944;BME280;32678;43.852;25.952;2023-02-28T12:30:37;102280.00;;;6.37;88.63
46944;BME280;32678;43.852;25.952;2023-02-28T12:35:38;102273.72;;;6.14;89.93
46944;BME280;32678;43.852;25.952;2023-02-28T12:40:42;102276.25;;;6.08;90.95
46944;BME280;32678;43.852;25.952;2023-02-28T12:46:50;102276.25;;;6.08;90.71
46944;BME280;32678;43.852;25.952;2023-02-28T12:58:04;102263.28;;;6.09;90.72
46944;BME280;32678;43.852;25.952;2023-02-28T13:03:20;102253.81;;;6.22;91.21
46944;BME280;32678;43.852;25.952;2023-02-28T13:14:28;102250.44;;;6.32;88.54
46944;BME280;32678;43.852;25.952;2023-02-28T13:19:27;102247.78;;;6.26;88.78
46944;BME280;32678;43.852;25.952;2023-02-28T13:24:45;102241.53;;;6.06;89.55
46944;BME280;32678;43.852;25.952;2023-02-28T13:29:43;102237.28;;;6.16;89.33
46944;BME280;32678;43.852;25.952;2023-02-28T13:34:46;102234.03;;;6.44;88.71
46944;BME280;32678;43.852;25.952;2023-02-28T13:39:47;102246.28;;;6.54;87.71
46944;BME280;32678;43.852;25.952;2023-02-28T13:55:19;102236.84;;;6.76;85.64
46944;BME280;32678;43.852;25.952;2023-02-28T14:00:29;102236.75;;;6.55;86.53
46944;BME280;32678;43.852;25.952;2023-02-28T14:05:28;102235.84;;;6.56;85.72
46944;BME280;32678;43.852;25.952;2023-02-28T14:10:28;102242.94;;;6.75;85.30
46944;BME280;32678;43.852;25.952;2023-02-28T14:15:39;102236.78;;;6.62;85.38
46944;BME280;32678;43.852;25.952;2023-02-28T14:20:36;102209.94;;;6.77;84.22
46944;BME280;32678;43.852;25.952;2023-02-28T14:25:35;102201.13;;;6.53;84.95
46944;BME280;32678;43.852;25.952;2023-02-28T14:30:40;102236.13;;;6.96;84.28
46944;BME280;32678;43.852;25.952;2023-02-28T14:35:40;102226.31;;;6.58;85.32
46944;BME280;32678;43.852;25.952;2023-02-28T14:40:44;102195.81;;;6.40;85.87
46944;BME280;32678;43.852;25.952;2023-02-28T14:45:42;102232.53;;;6.79;84.76
46944;BME280;32678;43.852;25.952;2023-02-28T14:50:39;102227.28;;;6.69;85.77
46944;BME280;32678;43.852;25.952;2023-02-28T14:55:43;102230.81;;;6.84;84.31
46944;BME280;32678;43.852;25.952;2023-02-28T15:00:47;102232.50;;;6.75;84.49
46944;BME280;32678;43.852;25.952;2023-02-28T15:05:51;102239.56;;;6.94;84.04
46944;BME280;32678;43.852;25.952;2023-02-28T15:10:50;102235.31;;;7.08;83.21
46944;BME280;32678;43.852;25.952;2023-02-28T15:15:49;102243.81;;;6.77;83.99
46944;BME280;32678;43.852;25.952;2023-02-28T15:21:06;102245.72;;;7.02;84.00
46944;BME280;32678;43.852;25.952;2023-02-28T15:26:04;102229.81;;;6.60;85.14
46944;BME280;32678;43.852;25.952;2023-02-28T15:31:03;102258.66;;;6.87;84.75
46944;BME280;32678;43.852;25.952;2023-02-28T15:36:10;102265.72;;;7.06;83.86
46944;BME280;32678;43.852;25.952;2023-02-28T15:41:21;102267.38;;;6.90;84.14
46944;BME280;32678;43.852;25.952;2023-02-28T15:46:20;102270.22;;;7.34;83.40
46944;BME280;32678;43.852;25.952;2023-02-28T15:51:17;102259.47;;;6.80;85.65
46944;BME280;32678;43.852;25.952;2023-02-28T15:56:22;102278.56;;;6.74;86.26
46944;BME280;32678;43.852;25.952;2023-02-28T16:01:23;102275.84;;;6.61;86.86
46944;BME280;32678;43.852;25.952;2023-02-28T16:06:36;102260.03;;;6.36;87.32
46944;BME280;32678;43.852;25.952;2023-02-28T16:11:33;102265.44;;;6.65;86.58
46944;BME280;32678;43.852;25.952;2023-02-28T16:16:32;102273.13;;;6.44;87.00
46944;BME280;32678;43.852;25.952;2023-02-28T16:21:29;102279.25;;;6.49;87.46
46944;BME280;32678;43.852;25.952;2023-02-28T16:26:26;102275.06;;;6.72;86.71
46944;BME280;32678;43.852;25.952;2023-02-28T16:31:24;102260.06;;;6.39;86.69
46944;BME280;32678;43.852;25.952;2023-02-28T16:36:22;102288.13;;;6.77;86.73
46944;BME280;32678;43.852;25.952;2023-02-28T16:41:21;102295.94;;;6.72;86.21
46944;BME280;32678;43.852;25.952;2023-02-28T16:46:19;102277.59;;;6.65;86.64
46944;BME280;32678;43.852;25.952;2023-02-28T16:51:19;102297.63;;;6.70;86.67
46944;BME280;32678;43.852;25.952;2023-02-28T17:01:30;102293.19;;;6.54;86.91
46944;BME280;32678;43.852;25.952;2023-02-28T17:06:36;102283.53;;;6.42;88.21
46944;BME280;32678;43.852;25.952;2023-02-28T17:12:01;102275.69;;;6.39;88.36
46944;BME280;32678;43.852;25.952;2023-02-28T17:16:59;102273.88;;;6.31;89.47
46944;BME280;32678;43.852;25.952;2023-02-28T17:21:56;102276.41;;;6.20;90.20
46944;BME280;32678;43.852;25.952;2023-02-28T17:26:53;102292.88;;;6.22;90.58
46944;BME280;32678;43.852;25.952;2023-02-28T17:31:50;102298.41;;;6.57;89.57
46944;BME280;32678;43.852;25.952;2023-02-28T17:36:48;102304.44;;;6.48;89.80
46944;BME280;32678;43.852;25.952;2023-02-28T17:41:45;102310.53;;;6.49;89.46
46944;BME280;32678;43.852;25.952;2023-02-28T17:46:42;102306.22;;;6.56;88.98
46944;BME280;32678;43.852;25.952;2023-02-28T17:51:39;102285.06;;;6.19;90.64
46944;BME280;32678;43.852;25.952;2023-02-28T17:56:37;102313.75;;;6.24;90.85
46944;BME280;32678;43.852;25.952;2023-02-28T18:01:34;102321.38;;;6.05;91.82
46944;BME280;32678;43.852;25.952;2023-02-28T18:06:33;102318.84;;;6.13;91.76
46944;BME280;32678;43.852;25.952;2023-02-28T18:11:31;102323.38;;;6.32;91.42
46944;BME280;32678;43.852;25.952;2023-02-28T18:16:41;102325.28;;;6.51;90.52
46944;BME280;32678;43.852;25.952;2023-02-28T18:21:38;102335.75;;;6.55;89.91
46944;BME280;32678;43.852;25.952;2023-02-28T18:26:35;102338.94;;;6.26;91.08
46944;BME280;32678;43.852;25.952;2023-02-28T18:31:33;102339.72;;;6.15;92.05
46944;BME280;32678;43.852;25.952;2023-02-28T18:36:31;102334.50;;;6.15;92.16
46944;BME280;32678;43.852;25.952;2023-02-28T18:41:28;102325.09;;;6.29;92.00
46944;BME280;32678;43.852;25.952;2023-02-28T18:46:26;102336.31;;;6.23;92.25
46944;BME280;32678;43.852;25.952;2023-02-28T18:51:28;102342.69;;;6.56;91.60
46944;BME280;32678;43.852;25.952;2023-02-28T18:56:25;102340.09;;;6.57;90.46
46944;BME280;32678;43.852;25.952;2023-02-28T19:01:22;102340.06;;;6.49;90.53
46944;BME280;32678;43.852;25.952;2023-02-28T19:06:21;102339.66;;;6.10;93.80
46944;BME280;32678;43.852;25.952;2023-02-28T19:11:22;102338.22;;;6.39;92.54
46944;BME280;32678;43.852;25.952;2023-02-28T19:16:20;102344.06;;;6.17;92.90
46944;BME280;32678;43.852;25.952;2023-02-28T19:21:19;102323.03;;;5.99;94.21
46944;BME280;32678;43.852;25.952;2023-02-28T19:26:23;102315.41;;;6.16;93.77
46944;BME280;32678;43.852;25.952;2023-02-28T19:31:22;102315.19;;;5.94;94.35
46944;BME280;32678;43.852;25.952;2023-02-28T19:36:20;102308.34;;;6.04;94.77
46944;BME280;32678;43.852;25.952;2023-02-28T19:41:17;102301.47;;;6.09;94.60
46944;BME280;32678;43.852;25.952;2023-02-28T19:46:14;102293.81;;;6.27;93.35
46944;BME280;32678;43.852;25.952;2023-02-28T19:51:12;102295.25;;;5.98;94.92
46944;BME280;32678;43.852;25.952;2023-02-28T19:56:09;102300.78;;;6.31;94.42
46944;BME280;32678;43.852;25.952;2023-02-28T20:01:06;102302.25;;;6.00;95.40
46944;BME280;32678;43.852;25.952;2023-02-28T20:06:04;102292.72;;;6.01;95.58
46944;BME280;32678;43.852;25.952;2023-02-28T20:11:07;102299.50;;;5.91;96.13
46944;BME280;32678;43.852;25.952;2023-02-28T20:16:28;102301.34;;;5.98;96.48
46944;BME280;32678;43.852;25.952;2023-02-28T20:21:26;102292.03;;;6.23;95.08
46944;BME280;32678;43.852;25.952;2023-02-28T20:26:24;102284.78;;;5.90;97.08
46944;BME280;32678;43.852;25.952;2023-02-28T20:31:21;102277.97;;;6.04;96.30
46944;BME280;32678;43.852;25.952;2023-02-28T20:36:20;102273.56;;;5.97;96.27
46944;BME280;32678;43.852;25.952;2023-02-28T20:41:19;102265.84;;;6.08;94.74
46944;BME280;32678;43.852;25.952;2023-02-28T20:46:17;102256.50;;;6.30;93.56
46944;BME280;32678;43.852;25.952;2023-02-28T20:51:16;102257.41;;;6.33;92.99
46944;BME280;32678;43.852;25.952;2023-02-28T20:56:14;102255.34;;;5.99;94.62
46944;BME280;32678;43.852;25.952;2023-02-28T21:01:11;102246.94;;;6.27;93.34
46944;BME280;32678;43.852;25.952;2023-02-28T21:06:13;102255.72;;;6.38;92.69
46944;BME280;32678;43.852;25.952;2023-02-28T21:11:13;102247.88;;;6.37;92.33
46944;BME280;32678;43.852;25.952;2023-02-28T21:16:11;102253.19;;;6.50;91.52
46944;BME280;32678;43.852;25.952;2023-02-28T21:21:09;102238.28;;;6.33;92.70
46944;BME280;32678;43.852;25.952;2023-02-28T21:26:10;102234.00;;;6.39;92.86
46944;BME280;32678;43.852;25.952;2023-02-28T21:31:07;102233.16;;;6.42;93.04
46944;BME280;32678;43.852;25.952;2023-02-28T21:36:05;102245.53;;;6.69;91.42
46944;BME280;32678;43.852;25.952;2023-02-28T21:41:06;102229.63;;;6.35;93.07
46944;BME280;32678;43.852;25.952;2023-02-28T21:46:04;102225.25;;;6.30;93.69
46944;BME280;32678;43.852;25.952;2023-02-28T21:51:02;102221.91;;;6.47;93.31
46944;BME280;32678;43.852;25.952;2023-02-28T21:55:59;102215.03;;;6.57;92.92
46944;BME280;32678;43.852;25.952;2023-02-28T22:01:02;102223.72;;;6.61;92.18
46944;BME280;32678;43.852;25.952;2023-02-28T22:06:00;102217.59;;;6.56;91.93
46944;BME280;32678;43.852;25.952;2023-02-28T22:11:00;102213.44;;;6.79;90.59
46944;BME280;32678;43.852;25.952;2023-02-28T22:16:00;102229.97;;;6.84;90.96
46944;BME280;32678;43.852;25.952;2023-02-28T22:21:01;102223.84;;;6.77;90.80
46944;BME280;32678;43.852;25.952;2023-02-28T22:25:59;102222.19;;;6.94;90.48
46944;BME280;32678;43.852;25.952;2023-02-28T22:30:56;102218.56;;;6.68;91.43
46944;BME280;32678;43.852;25.952;2023-02-28T22:35:53;102224.69;;;6.73;91.64
46944;BME280;32678;43.852;25.952;2023-02-28T22:40:50;102217.84;;;6.89;90.64
46944;BME280;32678;43.852;25.952;2023-02-28T22:45:51;102218.69;;;6.88;90.59
46944;BME280;32678;43.852;25.952;2023-02-28T22:50:48;102221.38;;;6.99;89.55
46944;BME280;32678;43.852;25.952;2023-02-28T22:55:45;102205.66;;;6.89;89.47
46944;BME280;32678;43.852;25.952;2023-02-28T23:00:50;102221.41;;;7.14;88.39
46944;BME280;32678;43.852;25.952;2023-02-28T23:05:50;102235.28;;;7.02;88.80
46944;BME280;32678;43.852;25.952;2023-02-28T23:10:49;102244.81;;;6.97;88.56
46944;BME280;32678;43.852;25.952;2023-02-28T23:15:46;102232.53;;;6.78;88.68
46944;BME280;32678;43.852;25.952;2023-02-28T23:20:44;102237.63;;;6.61;89.47
46944;BME280;32678;43.852;25.952;2023-02-28T23:25:40;102241.22;;;6.74;89.09
46944;BME280;32678;43.852;25.952;2023-02-28T23:30:37;102232.44;;;6.66;89.84
46944;BME280;32678;43.852;25.952;2023-02-28T23:35:34;102238.31;;;6.36;90.15
46944;BME280;32678;43.852;25.952;2023-02-28T23:40:31;102248.94;;;6.65;88.22
46944;BME280;32678;43.852;25.952;2023-02-28T23:45:28;102248.84;;;6.49;88.99
46944;BME280;32678;43.852;25.952;2023-02-28T23:50:24;102240.94;;;6.40;89.09
46944;BME280;32678;43.852;25.952;2023-02-28T23:55:21;102242.97;;;6.78;88.51
